Time;durP1;ratioP1;P1;durP2;ratioP2;P2;SDS_P1;SDS_P2;PMS_P1;PMS_P2;Temp;Humidity;BMP_temperature;BMP_pressure;BME280_temperature;BME280_humidity;BME280_pressure;Samples;Min_cycle;Max_cycle;Signal;HPM_P1;HPM_P2
2022/07/21 00:00:37;;;;;;;7.15;5.30;;;24.70;64.50;;;;;;2085021;28;20049;-74
2022/07/21 00:01:38;;;;;;;7.47;4.85;;;24.70;64.60;;;;;;2085262;28;20025;-75
2022/07/21 00:02:38;;;;;;;5.35;4.80;;;24.60;64.70;;;;;;2084673;28;20041;-74
2022/07/21 00:03:39;;;;;;;6.13;5.10;;;24.60;64.80;;;;;;2085209;28;20036;-74
2022/07/21 00:04:39;;;;;;;6.50;5.32;;;24.60;64.90;;;;;;2074818;28;20579;-75
2022/07/21 00:05:40;;;;;;;9.55;5.25;;;24.60;65.10;;;;;;2065570;28;20019;-74
2022/07/21 00:06:42;;;;;;;6.72;4.90;;;24.60;65.20;;;;;;2073911;28;20026;-74
2022/07/21 00:07:43;;;;;;;6.53;5.20;;;24.50;65.20;;;;;;2082507;28;20018;-75
2022/07/21 00:08:44;;;;;;;6.00;4.95;;;24.50;65.30;;;;;;2081587;28;20633;-74
2022/07/21 00:09:44;;;;;;;5.43;4.93;;;24.50;65.50;;;;;;2081450;28;20017;-74
2022/07/21 00:10:45;;;;;;;8.60;5.18;;;24.50;65.50;;;;;;2082803;28;20036;-74
2022/07/21 00:11:46;;;;;;;6.57;4.82;;;24.50;65.50;;;;;;2082673;28;20029;-74
2022/07/21 00:12:46;;;;;;;7.38;5.13;;;24.50;65.60;;;;;;2082624;28;20081;-74
2022/07/21 00:13:47;;;;;;;7.55;5.18;;;24.50;65.60;;;;;;2083736;28;20047;-74
2022/07/21 00:14:48;;;;;;;7.60;4.70;;;24.40;65.70;;;;;;2085799;28;20032;-74
2022/07/21 00:15:49;;;;;;;8.13;5.10;;;24.40;65.90;;;;;;2085287;28;20037;-74
2022/07/21 00:16:49;;;;;;;10.05;5.07;;;24.40;65.90;;;;;;2084986;28;20040;-74
2022/07/21 00:17:51;;;;;;;8.20;5.20;;;24.40;65.90;;;;;;2085274;28;20116;-75
2022/07/21 00:18:52;;;;;;;6.78;5.00;;;24.40;66.10;;;;;;2083716;28;20117;-74
2022/07/21 00:19:52;;;;;;;6.57;5.18;;;24.40;66.10;;;;;;2085248;28;20376;-74
2022/07/21 00:20:54;;;;;;;5.90;4.85;;;24.40;66.10;;;;;;2076692;28;20036;-74
2022/07/21 00:21:55;;;;;;;6.10;5.05;;;24.30;66.30;;;;;;2074244;28;20034;-74
2022/07/21 00:22:57;;;;;;;6.60;4.93;;;24.30;66.40;;;;;;2072867;28;20029;-74
2022/07/21 00:23:57;;;;;;;6.03;5.28;;;24.30;66.60;;;;;;2073021;28;20065;-74
2022/07/21 00:24:58;;;;;;;10.77;5.30;;;24.30;66.70;;;;;;2081855;28;20498;-74
2022/07/21 00:25:59;;;;;;;7.57;5.07;;;24.30;66.70;;;;;;2081662;28;20053;-74
2022/07/21 00:26:59;;;;;;;5.80;5.10;;;24.30;66.70;;;;;;2081952;28;20383;-74
2022/07/21 00:28:02;;;;;;;6.80;4.95;;;24.20;66.70;;;;;;2081889;28;20030;-74
2022/07/21 00:29:03;;;;;;;7.10;5.05;;;24.20;66.60;;;;;;2073079;28;20037;-74
2022/07/21 00:30:06;;;;;;;5.65;4.72;;;24.20;66.70;;;;;;2073232;28;20034;-74
2022/07/21 00:31:07;;;;;;;5.47;4.78;;;24.20;66.80;;;;;;2072872;28;20053;-74
2022/07/21 00:32:08;;;;;;;5.22;4.63;;;24.20;66.80;;;;;;2073201;28;20132;-74
2022/07/21 00:33:08;;;;;;;5.78;5.07;;;24.20;66.90;;;;;;2080902;28;20061;-74
2022/07/21 00:34:09;;;;;;;6.07;5.20;;;24.20;67.10;;;;;;2081254;28;20036;-74
2022/07/21 00:35:11;;;;;;;6.93;5.20;;;24.20;67.10;;;;;;2072517;28;20042;-73
2022/07/21 00:36:12;;;;;;;5.95;5.13;;;24.10;67.20;;;;;;2073114;28;20508;-73
2022/07/21 00:37:12;;;;;;;7.10;5.05;;;24.10;67.30;;;;;;2072879;28;20029;-73
2022/07/21 00:38:13;;;;;;;6.97;5.03;;;24.10;67.30;;;;;;2072763;28;20065;-73
2022/07/21 00:39:14;;;;;;;7.72;4.90;;;24.10;67.40;;;;;;2081694;28;20029;-73
2022/07/21 00:40:15;;;;;;;6.35;5.20;;;24.10;67.50;;;;;;2072505;28;20029;-74
2022/07/21 00:41:16;;;;;;;5.70;5.10;;;24.10;67.60;;;;;;2072846;28;20032;-73
2022/07/21 00:42:22;;;;;;;6.15;4.80;;;24.10;67.70;;;;;;2081088;28;20025;-74
2022/07/21 00:43:22;;;;;;;6.00;4.95;;;24.10;67.80;;;;;;2080831;28;20036;-74
2022/07/21 00:44:26;;;;;;;6.30;5.03;;;24.00;67.70;;;;;;2081459;28;20044;-74
2022/07/21 00:45:27;;;;;;;7.53;4.82;;;24.00;67.60;;;;;;2081234;28;20025;-74
2022/07/21 00:46:27;;;;;;;5.30;4.80;;;24.00;67.60;;;;;;2081407;28;20106;-74
2022/07/21 00:47:30;;;;;;;6.13;4.88;;;24.00;67.80;;;;;;2081636;28;20029;-74
2022/07/21 00:48:31;;;;;;;6.30;5.18;;;24.00;67.80;;;;;;2081527;28;20056;-73
2022/07/21 00:49:31;;;;;;;8.55;5.20;;;24.00;67.90;;;;;;2081686;28;20017;-74
2022/07/21 00:50:33;;;;;;;8.00;5.60;;;24.00;73.10;;;;;;2081782;28;20036;-74
2022/07/21 00:51:34;;;;;;;6.32;5.10;;;23.90;74.70;;;;;;2081827;28;20033;-74
2022/07/21 00:52:35;;;;;;;7.25;5.18;;;23.90;74.80;;;;;;2072525;28;20041;-74
2022/07/21 00:53:35;;;;;;;7.00;5.00;;;23.90;74.10;;;;;;2072731;28;20030;-73
2022/07/21 00:54:36;;;;;;;6.97;5.50;;;23.80;73.10;;;;;;2080961;28;20602;-74
2022/07/21 00:55:37;;;;;;;7.05;5.57;;;23.80;72.80;;;;;;2072568;28;20660;-74
2022/07/21 00:56:38;;;;;;;10.98;5.60;;;23.80;72.40;;;;;;2072782;28;20034;-74
2022/07/21 00:57:39;;;;;;;8.98;5.60;;;23.80;71.70;;;;;;2081837;28;20029;-74
2022/07/21 00:58:40;;;;;;;8.27;5.65;;;23.80;71.30;;;;;;2081233;28;20033;-75
2022/07/21 00:59:42;;;;;;;6.93;5.55;;;23.80;71.20;;;;;;2080593;28;20100;-74
2022/07/21 01:00:43;;;;;;;7.13;5.47;;;23.80;71.10;;;;;;2081403;28;20032;-74
2022/07/21 01:01:44;;;;;;;7.57;5.78;;;23.70;71.50;;;;;;2081519;28;20028;-74
2022/07/21 01:02:44;;;;;;;5.97;5.38;;;23.70;71.70;;;;;;2080630;28;20067;-74
2022/07/21 01:03:45;;;;;;;8.00;5.15;;;23.70;71.80;;;;;;2072470;28;20049;-74
2022/07/21 01:04:46;;;;;;;8.38;5.30;;;23.70;71.80;;;;;;2072624;28;20042;-73
2022/07/21 01:05:47;;;;;;;7.97;5.43;;;23.70;72.00;;;;;;2072727;28;20427;-73
2022/07/21 01:06:48;;;;;;;6.35;5.07;;;23.70;72.00;;;;;;2072592;28;20029;-73
2022/07/21 01:07:50;;;;;;;7.95;5.65;;;23.60;72.00;;;;;;2081338;28;20104;-74
2022/07/21 01:08:52;;;;;;;7.38;5.13;;;23.60;71.90;;;;;;2081540;28;20040;-72
2022/07/21 01:09:55;;;;;;;8.57;5.50;;;23.60;72.00;;;;;;2081689;28;20018;-73
2022/07/21 01:10:56;;;;;;;9.30;5.90;;;23.60;72.40;;;;;;2081537;28;20022;-73
2022/07/21 01:11:57;;;;;;;9.43;6.10;;;23.60;76.40;;;;;;2081136;28;20052;-72
2022/07/21 01:12:59;;;;;;;8.80;6.10;;;23.60;79.20;;;;;;2081366;28;20022;-73
2022/07/21 01:14:00;;;;;;;8.30;6.00;;;23.50;78.90;;;;;;2072288;28;20440;-73
2022/07/21 01:15:01;;;;;;;10.30;5.95;;;23.40;78.30;;;;;;2072481;28;20038;-73
2022/07/21 01:16:02;;;;;;;6.82;5.65;;;23.40;79.00;;;;;;2072555;28;20030;-73
2022/07/21 01:17:03;;;;;;;11.18;5.70;;;23.30;79.60;;;;;;2072607;28;20135;-73
2022/07/21 01:18:04;;;;;;;6.65;5.50;;;23.30;77.80;;;;;;2081096;28;20034;-73
2022/07/21 01:19:06;;;;;;;7.25;5.50;;;23.20;76.50;;;;;;2081204;28;20044;-73
2022/07/21 01:20:11;;;;;;;7.05;5.53;;;23.20;74.90;;;;;;2081252;28;20735;-73
2022/07/21 01:21:29;;;;;;;7.20;5.10;;;23.20;74.30;;;;;;2080531;28;20043;-72
2022/07/21 01:22:31;;;;;;;6.68;4.88;;;23.20;74.20;;;;;;2080516;28;20030;-73
2022/07/21 01:23:32;;;;;;;6.43;4.95;;;23.20;73.60;;;;;;2081159;28;20762;-72
2022/07/21 01:24:33;;;;;;;5.60;5.10;;;23.20;73.00;;;;;;2081091;28;20029;-72
2022/07/21 01:25:33;;;;;;;6.75;4.55;;;23.30;72.90;;;;;;2080922;28;20108;-72
2022/07/21 01:26:43;;;;;;;5.90;4.90;;;23.20;72.70;;;;;;2081179;28;20052;-72
2022/07/21 01:27:43;;;;;;;5.97;4.80;;;23.30;72.50;;;;;;2081411;28;20013;-73
2022/07/21 01:28:44;;;;;;;7.65;5.15;;;23.30;71.20;;;;;;2081353;28;20048;-73
2022/07/21 01:29:45;;;;;;;9.95;5.28;;;23.30;71.00;;;;;;2081126;28;20060;-72
2022/07/21 01:30:45;;;;;;;7.18;5.00;;;23.40;71.10;;;;;;2080679;28;20033;-72
2022/07/21 01:31:47;;;;;;;5.07;4.57;;;23.40;71.10;;;;;;2080577;28;20056;-73
2022/07/21 01:32:48;;;;;;;5.05;4.55;;;23.40;71.00;;;;;;2080879;28;20116;-73
2022/07/21 01:33:50;;;;;;;6.07;4.50;;;23.40;70.90;;;;;;2080955;28;20029;-72
2022/07/21 01:34:51;;;;;;;6.18;4.53;;;23.40;70.60;;;;;;2081018;28;20033;-73
2022/07/21 01:35:52;;;;;;;7.95;5.20;;;23.40;70.40;;;;;;2072467;28;20034;-73
2022/07/21 01:36:52;;;;;;;7.47;5.22;;;23.40;70.20;;;;;;2072402;28;20030;-72
2022/07/21 01:37:54;;;;;;;9.73;5.28;;;23.40;70.00;;;;;;2081096;28;20041;-73
2022/07/21 01:41:34;;;;;;;9.13;5.28;;;23.50;70.00;;;;;;2072371;28;20144;-73
2022/07/21 01:42:35;;;;;;;6.97;4.63;;;23.40;69.90;;;;;;2072198;28;20071;-73
2022/07/21 01:43:36;;;;;;;6.97;5.10;;;23.30;70.00;;;;;;2072308;28;20045;-73
2022/07/21 01:44:37;;;;;;;5.28;4.78;;;23.40;70.20;;;;;;2081144;28;20029;-73
2022/07/21 01:45:38;;;;;;;7.57;4.82;;;23.30;70.30;;;;;;2081044;28;20021;-72
2022/07/21 01:46:46;;;;;;;6.03;4.93;;;23.30;70.20;;;;;;2081255;28;20527;-73
2022/07/21 01:47:46;;;;;;;7.10;4.95;;;23.30;70.20;;;;;;2072177;28;20030;-73
2022/07/21 01:48:47;;;;;;;7.60;5.05;;;23.30;70.20;;;;;;2072089;28;20018;-73
2022/07/21 01:49:48;;;;;;;6.35;5.07;;;23.30;70.30;;;;;;2080897;28;20022;-72
2022/07/21 01:50:49;;;;;;;5.97;5.22;;;23.40;70.40;;;;;;2081159;28;20124;-72
2022/07/21 01:51:50;;;;;;;7.22;5.40;;;23.30;70.50;;;;;;2080338;28;20586;-72
2022/07/21 01:52:51;;;;;;;6.40;5.32;;;23.30;70.60;;;;;;2071975;28;20776;-72
2022/07/21 01:53:52;;;;;;;6.93;5.57;;;23.30;70.80;;;;;;2072165;28;20080;-72
2022/07/21 01:54:53;;;;;;;8.60;5.20;;;23.30;70.90;;;;;;2080818;28;20571;-72
2022/07/21 01:55:54;;;;;;;6.50;5.80;;;23.20;71.10;;;;;;2081135;28;20064;-72
2022/07/21 01:56:54;;;;;;;8.73;5.65;;;23.20;71.30;;;;;;2081265;28;20044;-72
2022/07/21 01:57:56;;;;;;;10.55;6.10;;;23.10;71.40;;;;;;2080841;28;20095;-73
2022/07/21 01:58:57;;;;;;;10.45;6.03;;;23.20;71.70;;;;;;2072535;28;20037;-73
2022/07/21 01:59:58;;;;;;;10.30;5.75;;;23.20;72.80;;;;;;2072781;28;20078;-73
2022/07/21 02:00:59;;;;;;;11.23;5.45;;;23.10;71.90;;;;;;2072848;28;20046;-73
2022/07/21 02:02:00;;;;;;;8.95;5.63;;;23.20;72.00;;;;;;2072607;28;20535;-73
2022/07/21 02:03:00;;;;;;;8.23;5.50;;;23.20;72.30;;;;;;2081498;28;20030;-74
2022/07/21 02:04:03;;;;;;;8.82;5.40;;;23.20;72.60;;;;;;2081133;28;20026;-73
2022/07/21 02:05:05;;;;;;;7.05;5.68;;;23.20;72.80;;;;;;2081265;28;20483;-73
2022/07/21 02:06:08;;;;;;;7.55;5.40;;;23.20;73.10;;;;;;2080934;28;20057;-73
2022/07/21 02:07:09;;;;;;;8.32;5.25;;;23.20;72.90;;;;;;2081070;28;20026;-72
2022/07/21 02:08:10;;;;;;;8.82;5.25;;;23.10;72.80;;;;;;2081044;28;20025;-73
2022/07/21 02:09:10;;;;;;;9.13;5.40;;;23.10;73.30;;;;;;2072669;28;20037;-76
2022/07/21 02:10:11;;;;;;;7.25;5.60;;;23.10;73.40;;;;;;2072344;28;20053;-73
2022/07/21 02:11:13;;;;;;;7.88;5.22;;;23.10;75.20;;;;;;2072130;28;20030;-73
2022/07/21 02:12:14;;;;;;;9.27;5.20;;;23.10;76.20;;;;;;2072830;28;20030;-73
2022/07/21 02:13:14;;;;;;;8.50;5.05;;;23.10;75.70;;;;;;2072226;28;20552;-73
2022/07/21 02:14:15;;;;;;;9.32;5.35;;;23.10;74.70;;;;;;2072205;28;20034;-73
2022/07/21 02:15:16;;;;;;;8.18;5.25;;;23.10;75.00;;;;;;2080523;28;20120;-74
2022/07/21 02:16:16;;;;;;;8.52;5.63;;;23.10;74.90;;;;;;2080612;28;20063;-73
2022/07/21 02:17:17;;;;;;;7.82;5.22;;;23.10;74.50;;;;;;2080774;28;20047;-74
2022/07/21 02:18:19;;;;;;;6.45;4.82;;;23.10;74.40;;;;;;2071720;28;20084;-73
2022/07/21 02:19:19;;;;;;;6.55;5.30;;;23.10;74.30;;;;;;2071896;28;20036;-73
2022/07/21 02:20:20;;;;;;;7.10;5.05;;;23.10;73.90;;;;;;2080600;28;20029;-73
2022/07/21 02:21:21;;;;;;;11.60;5.18;;;23.10;73.70;;;;;;2082009;28;20399;-72
2022/07/21 02:22:22;;;;;;;9.00;5.13;;;23.10;73.60;;;;;;2072759;28;20061;-73
2022/07/21 02:23:24;;;;;;;7.80;5.13;;;23.10;73.50;;;;;;2073132;28;20034;-73
2022/07/21 02:24:25;;;;;;;6.72;4.97;;;23.10;73.50;;;;;;2073535;28;20116;-72
2022/07/21 02:25:29;;;;;;;6.90;4.70;;;23.10;73.60;;;;;;2074334;28;20030;-74
2022/07/21 02:26:33;;;;;;;6.70;4.80;;;23.10;73.60;;;;;;2083548;28;20017;-74
2022/07/21 02:27:50;;;;;;;5.35;4.57;;;23.10;73.50;;;;;;2075044;28;20023;-74
2022/07/21 02:28:51;;;;;;;5.18;4.65;;;23.00;73.30;;;;;;2068226;28;20110;-74
2022/07/21 02:29:55;;;;;;;6.90;4.68;;;23.00;73.10;;;;;;2066030;28;20019;-73
2022/07/21 02:30:56;;;;;;;5.00;4.43;;;23.00;73.00;;;;;;2073791;28;20554;-74
2022/07/21 02:31:56;;;;;;;6.20;4.97;;;23.00;72.70;;;;;;2065575;28;20162;-74
2022/07/21 02:32:58;;;;;;;5.28;4.78;;;23.10;72.70;;;;;;2064372;28;20137;-74
2022/07/21 02:33:59;;;;;;;6.40;4.78;;;23.00;72.70;;;;;;2072918;28;20026;-73
2022/07/21 02:35:00;;;;;;;5.20;4.65;;;23.10;72.30;;;;;;2081395;28;20133;-73
2022/07/21 02:36:00;;;;;;;6.20;4.85;;;23.10;72.40;;;;;;2065344;28;20547;-73
2022/07/21 02:37:01;;;;;;;6.13;4.88;;;23.00;72.50;;;;;;2064555;28;20022;-73
2022/07/21 02:38:02;;;;;;;6.90;4.55;;;23.00;72.60;;;;;;2080958;28;20043;-73
2022/07/21 02:39:03;;;;;;;5.50;5.00;;;23.00;72.80;;;;;;2080674;28;20033;-73
2022/07/21 02:40:05;;;;;;;7.30;4.90;;;23.00;72.80;;;;;;2072072;28;20029;-73
2022/07/21 02:41:06;;;;;;;5.47;4.68;;;23.10;73.00;;;;;;2073064;28;20040;-74
2022/07/21 02:42:06;;;;;;;7.13;4.88;;;23.00;73.10;;;;;;2082210;28;20032;-73
2022/07/21 02:43:07;;;;;;;5.22;4.70;;;23.00;73.10;;;;;;2081803;28;20394;-73
2022/07/21 02:44:07;;;;;;;6.68;4.82;;;23.00;73.20;;;;;;2082086;28;20040;-73
2022/07/21 02:45:10;;;;;;;5.13;4.55;;;23.00;73.30;;;;;;2081754;28;20090;-72
2022/07/21 02:46:10;;;;;;;5.32;4.75;;;23.00;73.30;;;;;;2072644;28;20037;-72
2022/07/21 02:47:11;;;;;;;7.15;4.95;;;23.00;73.10;;;;;;2073395;28;20048;-73
2022/07/21 02:48:13;;;;;;;7.18;4.88;;;22.90;73.20;;;;;;2073140;28;20117;-73
2022/07/21 02:49:13;;;;;;;5.97;5.38;;;22.90;73.50;;;;;;2072970;28;20044;-74
2022/07/21 02:50:16;;;;;;;8.10;5.68;;;22.90;73.40;;;;;;2081232;28;20459;-74
2022/07/21 02:51:17;;;;;;;6.00;5.40;;;22.90;73.50;;;;;;2072558;28;20026;-73
2022/07/21 02:52:17;;;;;;;7.18;5.32;;;22.90;73.50;;;;;;2065514;28;20056;-73
2022/07/21 02:53:19;;;;;;;6.70;5.30;;;22.90;73.40;;;;;;2073628;28;20077;-73
2022/07/21 02:54:20;;;;;;;6.72;5.10;;;22.90;73.40;;;;;;2081857;28;20507;-73
2022/07/21 02:55:21;;;;;;;6.05;5.20;;;22.90;73.50;;;;;;2082477;28;20029;-73
2022/07/21 02:56:21;;;;;;;5.75;5.13;;;22.90;73.60;;;;;;2073011;28;20428;-73
2022/07/21 02:57:22;;;;;;;7.68;4.97;;;22.90;73.80;;;;;;2073037;28;20384;-73
2022/07/21 02:58:26;;;;;;;6.28;4.90;;;22.90;73.80;;;;;;2081588;28;20033;-74
2022/07/21 02:59:26;;;;;;;6.32;5.20;;;22.90;73.80;;;;;;2081156;28;20376;-72
2022/07/21 03:00:27;;;;;;;5.72;4.97;;;22.90;73.90;;;;;;2080428;28;20032;-74
2022/07/21 03:01:28;;;;;;;8.82;5.30;;;22.90;74.10;;;;;;2080274;28;20104;-73
2022/07/21 03:02:28;;;;;;;6.65;5.10;;;22.90;74.10;;;;;;2079791;28;20041;-73
2022/07/21 03:03:32;;;;;;;6.43;5.03;;;22.90;74.10;;;;;;2079907;28;20018;-73
2022/07/21 03:04:32;;;;;;;6.18;5.53;;;22.90;74.10;;;;;;2071487;28;20124;-73
2022/07/21 03:05:34;;;;;;;6.97;5.47;;;22.90;74.00;;;;;;2071391;28;20030;-74
2022/07/21 03:06:35;;;;;;;9.25;5.55;;;22.90;74.00;;;;;;2071655;28;20026;-73
2022/07/21 03:07:35;;;;;;;8.68;5.75;;;23.00;74.00;;;;;;2079720;28;20033;-75
2022/07/21 03:08:36;;;;;;;8.75;6.03;;;23.00;74.20;;;;;;2079465;28;20022;-73
2022/07/21 03:09:37;;;;;;;7.97;6.05;;;23.00;75.00;;;;;;2080399;28;20045;-73
2022/07/21 03:10:39;;;;;;;7.03;5.50;;;23.00;74.20;;;;;;2079616;28;20071;-73
2022/07/21 03:11:39;;;;;;;8.25;6.15;;;23.00;74.20;;;;;;2079713;28;20029;-73
2022/07/21 03:12:40;;;;;;;9.68;6.25;;;23.10;74.30;;;;;;2080256;28;20032;-73
2022/07/21 03:13:41;;;;;;;8.57;6.05;;;23.10;74.30;;;;;;2073061;28;20785;-73
2022/07/21 03:14:41;;;;;;;10.18;6.15;;;23.10;74.30;;;;;;2074635;28;20551;-74
2022/07/21 03:15:42;;;;;;;7.03;5.88;;;23.10;74.30;;;;;;2083145;28;20111;-73
2022/07/21 03:16:43;;;;;;;8.10;6.40;;;23.10;74.40;;;;;;2073559;28;20045;-73
2022/07/21 03:17:43;;;;;;;7.65;6.13;;;23.10;74.50;;;;;;2072279;28;20026;-72
2022/07/21 03:18:44;;;;;;;7.47;6.18;;;23.10;74.40;;;;;;2082478;28;20517;-72
2022/07/21 03:19:45;;;;;;;8.18;6.28;;;23.10;74.50;;;;;;2081802;28;20442;-72
2022/07/21 03:20:46;;;;;;;18.63;9.90;;;23.20;74.50;;;;;;2081931;28;20798;-72
2022/07/21 03:21:46;;;;;;;16.65;9.70;;;23.20;75.80;;;;;;2080773;28;20056;-74
2022/07/21 03:22:47;;;;;;;12.75;10.15;;;23.20;76.40;;;;;;2080694;28;20091;-73
2022/07/21 03:23:48;;;;;;;11.98;10.20;;;23.40;76.30;;;;;;2079410;28;20028;-73
2022/07/21 03:24:50;;;;;;;16.30;10.50;;;23.40;76.40;;;;;;2080128;28;20113;-74
2022/07/21 03:25:51;;;;;;;14.38;9.93;;;23.40;76.50;;;;;;2071248;28;20092;-73
2022/07/21 03:26:52;;;;;;;16.00;10.10;;;23.50;76.40;;;;;;2071745;28;20048;-73
2022/07/21 03:27:53;;;;;;;17.00;9.60;;;23.50;76.40;;;;;;2079951;28;20087;-72
2022/07/21 03:28:53;;;;;;;14.88;10.13;;;23.50;77.10;;;;;;2079937;28;20025;-73
2022/07/21 03:29:57;;;;;;;13.30;9.40;;;23.60;77.00;;;;;;2080208;28;20598;-74
2022/07/21 03:30:58;;;;;;;12.30;9.43;;;23.60;77.00;;;;;;2072011;28;20034;-73
2022/07/21 03:32:00;;;;;;;12.77;9.80;;;23.60;77.00;;;;;;2063394;28;20039;-72
2022/07/21 03:33:00;;;;;;;11.98;10.00;;;23.60;76.90;;;;;;2071654;28;20441;-73
2022/07/21 03:34:01;;;;;;;16.60;9.50;;;23.60;76.90;;;;;;2080534;28;20029;-72
2022/07/21 03:35:03;;;;;;;15.85;10.20;;;23.60;76.90;;;;;;2079777;28;20037;-73
2022/07/21 03:36:04;;;;;;;18.52;9.98;;;23.70;76.90;;;;;;2071602;28;20033;-73
2022/07/21 03:37:05;;;;;;;11.90;9.38;;;23.60;76.90;;;;;;2071851;28;20500;-72
2022/07/21 03:38:06;;;;;;;13.43;9.85;;;23.60;76.90;;;;;;2079549;28;20124;-73
2022/07/21 03:39:07;;;;;;;10.95;9.75;;;23.70;77.00;;;;;;2080272;28;20060;-73
2022/07/21 03:40:10;;;;;;;10.48;9.15;;;23.60;76.90;;;;;;2071617;28;20260;-73
2022/07/21 03:41:10;;;;;;;14.30;9.45;;;23.60;77.00;;;;;;2055519;28;20026;-74
2022/07/21 03:42:11;;;;;;;10.95;9.15;;;23.60;77.10;;;;;;2063402;28;20065;-74
2022/07/21 03:43:12;;;;;;;11.57;9.68;;;23.60;77.20;;;;;;2071256;28;20136;-73
2022/07/21 03:44:13;;;;;;;10.70;9.60;;;23.60;77.40;;;;;;2063952;28;20058;-73
2022/07/21 03:45:14;;;;;;;11.25;10.02;;;23.60;77.40;;;;;;2063717;28;20033;-73
2022/07/21 03:46:15;;;;;;;11.45;9.77;;;23.60;78.30;;;;;;2072694;28;20049;-74
2022/07/21 03:47:16;;;;;;;14.98;10.57;;;23.50;77.80;;;;;;2081540;28;20025;-74
2022/07/21 03:48:16;;;;;;;12.20;10.02;;;23.50;77.90;;;;;;2063345;28;20026;-73
2022/07/21 03:49:18;;;;;;;12.35;9.98;;;23.50;78.00;;;;;;2063756;28;20168;-73
2022/07/21 03:50:18;;;;;;;11.48;9.90;;;23.50;78.10;;;;;;2072139;28;20030;-75
2022/07/21 03:51:19;;;;;;;12.50;9.98;;;23.50;78.20;;;;;;2071750;28;20026;-74
2022/07/21 03:52:20;;;;;;;14.82;10.50;;;23.50;78.40;;;;;;2071568;28;20026;-73
2022/07/21 03:53:21;;;;;;;12.52;10.00;;;23.50;78.50;;;;;;2071536;28;20026;-74
2022/07/21 03:54:21;;;;;;;12.98;10.65;;;23.40;78.50;;;;;;2079824;28;20041;-75
2022/07/21 03:55:22;;;;;;;16.00;10.52;;;23.40;78.60;;;;;;2079470;28;20146;-74
2022/07/21 03:56:23;;;;;;;15.20;10.35;;;23.40;78.90;;;;;;2079339;28;20068;-74
2022/07/21 03:57:24;;;;;;;11.40;10.20;;;23.40;79.00;;;;;;2079705;28;20022;-76
2022/07/21 03:58:24;;;;;;;12.93;9.95;;;23.40;78.90;;;;;;2079500;28;20033;-75
2022/07/21 03:59:25;;;;;;;14.02;10.13;;;23.40;78.90;;;;;;2079391;28;20476;-75
2022/07/21 04:00:29;;;;;;;11.63;9.00;;;23.30;78.70;;;;;;2079232;28;20678;-75
2022/07/21 04:01:30;;;;;;;11.57;9.88;;;23.30;78.50;;;;;;2080126;28;20022;-74
2022/07/21 04:02:30;;;;;;;10.45;9.35;;;23.30;78.40;;;;;;2079805;28;20021;-75
2022/07/21 04:03:33;;;;;;;11.90;9.25;;;23.30;78.30;;;;;;2070993;28;20032;-75
2022/07/21 04:04:34;;;;;;;10.48;9.15;;;23.20;78.20;;;;;;2071484;28;20036;-74
2022/07/21 04:05:36;;;;;;;13.20;9.30;;;23.20;78.20;;;;;;2072066;28;20033;-75
2022/07/21 04:06:36;;;;;;;14.13;9.80;;;23.20;78.20;;;;;;2071366;28;20026;-76
2022/07/21 04:07:40;;;;;;;11.02;9.30;;;23.20;78.40;;;;;;2079771;28;20111;-74
2022/07/21 04:08:41;;;;;;;11.00;9.02;;;23.20;78.50;;;;;;2071158;28;20034;-75
2022/07/21 04:09:41;;;;;;;10.27;8.77;;;23.20;79.30;;;;;;2063364;28;20022;-75
2022/07/21 04:10:43;;;;;;;10.40;9.00;;;23.20;78.60;;;;;;2071525;28;20041;-75
2022/07/21 04:11:45;;;;;;;11.25;9.02;;;23.20;78.50;;;;;;2080474;28;20049;-75
2022/07/21 04:12:46;;;;;;;11.45;8.75;;;23.20;78.70;;;;;;2080058;28;20041;-74
2022/07/21 04:13:46;;;;;;;13.20;9.25;;;23.20;79.10;;;;;;2071262;28;20119;-74
2022/07/21 04:14:47;;;;;;;12.13;9.32;;;23.10;79.00;;;;;;2063433;28;20046;-74
2022/07/21 04:15:48;;;;;;;12.13;9.15;;;23.10;79.40;;;;;;2063398;28;20433;-74
2022/07/21 04:16:49;;;;;;;13.50;9.65;;;23.10;79.30;;;;;;2071440;28;20178;-75
2022/07/21 04:17:50;;;;;;;10.88;8.68;;;23.10;79.40;;;;;;2079550;28;20826;-75
2022/07/21 04:18:51;;;;;;;11.98;8.80;;;23.10;79.60;;;;;;2079886;28;20044;-75
2022/07/21 04:19:51;;;;;;;9.63;8.63;;;23.10;79.60;;;;;;2080028;28;20041;-74
2022/07/21 04:20:52;;;;;;;11.10;8.98;;;23.10;79.60;;;;;;2070899;28;20064;-74
2022/07/21 04:21:53;;;;;;;12.70;9.43;;;23.10;79.70;;;;;;2071443;28;20108;-74
2022/07/21 04:22:54;;;;;;;10.40;8.90;;;23.10;79.70;;;;;;2079979;28;20029;-75
2022/07/21 04:23:54;;;;;;;13.23;9.15;;;23.10;79.70;;;;;;2071299;28;20123;-75
2022/07/21 04:24:55;;;;;;;12.35;9.38;;;23.20;79.90;;;;;;2071238;28;20029;-75
2022/07/21 04:25:56;;;;;;;12.93;9.80;;;23.20;80.00;;;;;;2070642;28;20569;-75
2022/07/21 04:26:57;;;;;;;11.40;8.98;;;23.20;80.10;;;;;;2070703;28;20114;-74
2022/07/21 04:27:58;;;;;;;10.93;9.30;;;23.20;80.20;;;;;;2070677;28;20026;-75
2022/07/21 04:28:59;;;;;;;11.77;9.60;;;23.20;80.20;;;;;;2062515;28;20029;-74
2022/07/21 04:30:00;;;;;;;13.32;9.50;;;23.20;80.20;;;;;;2070639;28;20030;-74
2022/07/21 04:31:01;;;;;;;10.88;9.25;;;23.30;80.40;;;;;;2079560;28;20104;-76
2022/07/21 04:32:02;;;;;;;10.68;9.60;;;23.30;80.40;;;;;;2070932;28;20423;-76
2022/07/21 04:33:03;;;;;;;11.65;9.63;;;23.30;80.40;;;;;;2071049;28;20038;-75
2022/07/21 04:34:03;;;;;;;11.70;9.20;;;23.40;80.40;;;;;;2080814;28;20030;-76
2022/07/21 04:35:05;;;;;;;12.35;9.50;;;23.40;80.20;;;;;;2081409;28;20025;-75
2022/07/21 04:36:07;;;;;;;13.02;9.60;;;23.50;80.00;;;;;;2081405;28;20531;-75
2022/07/21 04:37:07;;;;;;;11.38;9.32;;;23.60;79.80;;;;;;2080966;28;20039;-76
2022/07/21 04:38:10;;;;;;;10.93;9.60;;;23.70;79.80;;;;;;2081002;28;20551;-76
2022/07/21 04:39:10;;;;;;;13.93;9.40;;;23.80;79.50;;;;;;2072785;28;20483;-75
2022/07/21 04:40:13;;;;;;;9.90;8.90;;;24.00;79.00;;;;;;2072816;28;20030;-75
2022/07/21 04:41:14;;;;;;;10.32;9.07;;;24.30;78.40;;;;;;2081296;28;20087;-74
2022/07/21 04:42:14;;;;;;;10.05;9.02;;;24.60;77.30;;;;;;2072837;28;20030;-75
2022/07/21 04:43:15;;;;;;;10.80;9.25;;;25.00;76.30;;;;;;2072610;28;20033;-75
2022/07/21 04:44:16;;;;;;;10.50;8.98;;;25.40;75.00;;;;;;2072722;28;20022;-78
2022/07/21 04:45:17;;;;;;;11.40;9.00;;;25.80;73.50;;;;;;2072580;28;20026;-75
2022/07/21 04:46:17;;;;;;;12.98;9.05;;;26.10;72.40;;;;;;2080811;28;20048;-75
2022/07/21 04:47:18;;;;;;;10.68;9.20;;;26.50;71.20;;;;;;2081553;28;20448;-75
2022/07/21 04:48:19;;;;;;;11.05;9.20;;;26.80;70.10;;;;;;2081132;28;20038;-74
2022/07/21 04:49:20;;;;;;;11.75;9.50;;;27.10;69.30;;;;;;2081243;28;20033;-75
2022/07/21 04:50:23;;;;;;;10.77;9.07;;;27.30;68.40;;;;;;2081260;28;20026;-75
2022/07/21 04:51:24;;;;;;;10.05;9.05;;;27.60;67.70;;;;;;2081323;28;20037;-75
2022/07/21 04:52:25;;;;;;;13.32;9.30;;;27.80;66.80;;;;;;2072128;28;20022;-74
2022/07/21 04:53:25;;;;;;;16.05;9.35;;;28.00;66.20;;;;;;2072425;28;20059;-75
2022/07/21 04:54:26;;;;;;;11.13;9.45;;;28.20;65.50;;;;;;2081303;28;20036;-75
2022/07/21 04:55:27;;;;;;;10.80;8.95;;;28.30;64.90;;;;;;2081710;28;20031;-75
2022/07/21 04:56:28;;;;;;;10.50;8.90;;;28.50;64.50;;;;;;2081224;28;20030;-75
2022/07/21 04:57:28;;;;;;;11.45;9.45;;;28.70;63.80;;;;;;2081423;28;20028;-75
2022/07/21 04:58:29;;;;;;;12.38;9.18;;;28.90;63.00;;;;;;2081100;28;20053;-75
2022/07/21 04:59:30;;;;;;;15.57;9.10;;;29.00;62.70;;;;;;2072319;28;20708;-75
2022/07/21 05:00:31;;;;;;;11.45;8.75;;;29.20;62.30;;;;;;2064138;28;20400;-75
2022/07/21 05:01:32;;;;;;;12.27;9.25;;;29.30;62.10;;;;;;2072446;28;20076;-75
2022/07/21 05:02:32;;;;;;;11.27;9.25;;;29.40;60.60;;;;;;2080998;28;20569;-75
2022/07/21 05:03:33;;;;;;;10.23;9.13;;;29.50;60.30;;;;;;2081241;28;20049;-74
2022/07/21 05:04:34;;;;;;;14.40;9.50;;;29.60;60.20;;;;;;2081209;28;20415;-73
2022/07/21 05:05:34;;;;;;;11.93;8.68;;;29.60;59.90;;;;;;2081322;28;20034;-75
2022/07/21 05:06:35;;;;;;;13.88;9.30;;;29.80;59.70;;;;;;2072641;28;20105;-75
2022/07/21 05:07:36;;;;;;;11.18;8.60;;;29.90;59.10;;;;;;2072357;28;20081;-75
2022/07/21 05:08:37;;;;;;;12.23;9.10;;;29.90;58.90;;;;;;2072325;28;20025;-75
2022/07/21 05:09:37;;;;;;;11.32;9.10;;;30.10;58.60;;;;;;2072578;28;20065;-75
2022/07/21 05:10:38;;;;;;;15.32;9.00;;;30.20;58.00;;;;;;2081330;28;20484;-75
2022/07/21 05:11:38;;;;;;;16.33;9.07;;;30.30;57.70;;;;;;2072510;28;20476;-75
2022/07/21 05:12:40;;;;;;;18.05;9.30;;;30.40;57.40;;;;;;2071947;28;20029;-75
2022/07/21 05:13:40;;;;;;;16.23;9.18;;;30.50;57.40;;;;;;2081312;28;20032;-75
2022/07/21 05:14:41;;;;;;;16.08;8.90;;;30.60;57.40;;;;;;2081399;28;20679;-74
2022/07/21 05:15:42;;;;;;;16.65;9.35;;;30.60;57.20;;;;;;2081444;28;20111;-75
2022/07/21 05:16:42;;;;;;;16.38;9.15;;;30.60;57.40;;;;;;2072571;28;20033;-75
2022/07/21 05:17:43;;;;;;;13.30;9.02;;;30.70;57.50;;;;;;2072402;28;20030;-75
2022/07/21 05:18:44;;;;;;;12.30;8.80;;;30.70;57.20;;;;;;2081072;28;20021;-74
2022/07/21 05:19:48;;;;;;;10.25;8.52;;;30.80;56.80;;;;;;2081363;28;20514;-75